sensor_id;sensor_type;location;lat;lon;timestamp;temperature;humidity
37456;DHT22;23316;50.718;7.328;2023-06-22T00:02:21;24.20;55.20
37456;DHT22;23316;50.718;7.328;2023-06-22T00:04:49;24.20;55.30
37456;DHT22;23316;50.718;7.328;2023-06-22T00:07:17;24.20;55.80
37456;DHT22;23316;50.718;7.328;2023-06-22T00:09:45;24.20;55.30
37456;DHT22;23316;50.718;7.328;2023-06-22T00:12:12;24.20;55.40
37456;DHT22;23316;50.718;7.328;2023-06-22T00:14:39;24.10;55.40
37456;DHT22;23316;50.718;7.328;2023-06-22T00:17:06;24.10;55.40
37456;DHT22;23316;50.718;7.328;2023-06-22T00:19:33;24.10;55.40
37456;DHT22;23316;50.718;7.328;2023-06-22T00:22:01;24.10;55.40
37456;DHT22;23316;50.718;7.328;2023-06-22T00:24:30;24.10;55.40
37456;DHT22;23316;50.718;7.328;2023-06-22T00:26:57;24.10;55.50
37456;DHT22;23316;50.718;7.328;2023-06-22T00:29:25;24.20;55.50
37456;DHT22;23316;50.718;7.328;2023-06-22T00:31:52;24.10;55.50
37456;DHT22;23316;50.718;7.328;2023-06-22T00:34:19;24.10;55.60
37456;DHT22;23316;50.718;7.328;2023-06-22T00:36:46;24.10;55.60
37456;DHT22;23316;50.718;7.328;2023-06-22T00:39:13;24.10;55.70
37456;DHT22;23316;50.718;7.328;2023-06-22T00:41:42;24.10;55.70
37456;DHT22;23316;50.718;7.328;2023-06-22T00:44:09;24.10;55.70
37456;DHT22;23316;50.718;7.328;2023-06-22T00:46:36;24.10;55.70
37456;DHT22;23316;50.718;7.328;2023-06-22T00:49:04;24.10;55.80
37456;DHT22;23316;50.718;7.328;2023-06-22T00:51:31;24.10;55.80
37456;DHT22;23316;50.718;7.328;2023-06-22T00:53:59;24.10;55.70
37456;DHT22;23316;50.718;7.328;2023-06-22T00:56:26;24.10;55.70
37456;DHT22;23316;50.718;7.328;2023-06-22T00:58:58;24.10;55.70
37456;DHT22;23316;50.718;7.328;2023-06-22T01:01:25;24.10;55.70
37456;DHT22;23316;50.718;7.328;2023-06-22T01:03:52;24.10;55.60
37456;DHT22;23316;50.718;7.328;2023-06-22T01:06:28;24.00;55.60
37456;DHT22;23316;50.718;7.328;2023-06-22T01:09:05;24.00;55.70
37456;DHT22;23316;50.718;7.328;2023-06-22T01:11:37;24.00;55.80
37456;DHT22;23316;50.718;7.328;2023-06-22T01:14:19;24.00;55.90
37456;DHT22;23316;50.718;7.328;2023-06-22T01:16:51;24.00;56.00
37456;DHT22;23316;50.718;7.328;2023-06-22T01:19:35;24.00;56.10
37456;DHT22;23316;50.718;7.328;2023-06-22T01:22:03;24.00;56.30
37456;DHT22;23316;50.718;7.328;2023-06-22T01:24:38;24.00;56.30
37456;DHT22;23316;50.718;7.328;2023-06-22T01:27:15;24.00;56.40
37456;DHT22;23316;50.718;7.328;2023-06-22T01:29:50;23.90;56.40
37456;DHT22;23316;50.718;7.328;2023-06-22T01:32:18;23.90;56.50
37456;DHT22;23316;50.718;7.328;2023-06-22T01:34:46;23.90;56.60
37456;DHT22;23316;50.718;7.328;2023-06-22T01:37:14;23.90;56.70
37456;DHT22;23316;50.718;7.328;2023-06-22T01:39:42;23.90;56.80
37456;DHT22;23316;50.718;7.328;2023-06-22T01:42:10;23.90;56.90
37456;DHT22;23316;50.718;7.328;2023-06-22T01:44:37;23.90;56.90
37456;DHT22;23316;50.718;7.328;2023-06-22T01:47:07;23.90;57.00
37456;DHT22;23316;50.718;7.328;2023-06-22T01:49:34;23.90;57.10
37456;DHT22;23316;50.718;7.328;2023-06-22T01:52:03;24.00;57.10
37456;DHT22;23316;50.718;7.328;2023-06-22T01:54:30;23.90;57.10
37456;DHT22;23316;50.718;7.328;2023-06-22T01:56:57;24.00;57.10
37456;DHT22;23316;50.718;7.328;2023-06-22T01:59:27;24.00;57.10
37456;DHT22;23316;50.718;7.328;2023-06-22T02:01:59;24.00;57.10
37456;DHT22;23316;50.718;7.328;2023-06-22T02:04:36;24.00;57.00
37456;DHT22;23316;50.718;7.328;2023-06-22T02:07:09;24.00;57.00
37456;DHT22;23316;50.718;7.328;2023-06-22T02:09:39;23.90;57.00
37456;DHT22;23316;50.718;7.328;2023-06-22T02:12:08;24.00;57.00
37456;DHT22;23316;50.718;7.328;2023-06-22T02:14:38;24.00;57.00
37456;DHT22;23316;50.718;7.328;2023-06-22T02:17:07;24.00;57.10
37456;DHT22;23316;50.718;7.328;2023-06-22T02:19:38;24.00;57.10
37456;DHT22;23316;50.718;7.328;2023-06-22T02:22:05;24.00;57.20
37456;DHT22;23316;50.718;7.328;2023-06-22T02:24:32;23.90;57.10
37456;DHT22;23316;50.718;7.328;2023-06-22T02:27:01;23.90;57.10
37456;DHT22;23316;50.718;7.328;2023-06-22T02:29:29;23.90;57.20
37456;DHT22;23316;50.718;7.328;2023-06-22T02:31:57;24.00;57.30
37456;DHT22;23316;50.718;7.328;2023-06-22T02:34:24;23.90;57.30
37456;DHT22;23316;50.718;7.328;2023-06-22T02:36:53;23.90;57.30
37456;DHT22;23316;50.718;7.328;2023-06-22T02:39:21;23.90;57.40
37456;DHT22;23316;50.718;7.328;2023-06-22T02:41:49;23.90;57.40
37456;DHT22;23316;50.718;7.328;2023-06-22T02:44:17;23.90;57.40
37456;DHT22;23316;50.718;7.328;2023-06-22T02:46:45;23.90;57.50
37456;DHT22;23316;50.718;7.328;2023-06-22T02:49:12;23.90;57.50
37456;DHT22;23316;50.718;7.328;2023-06-22T02:51:43;23.90;57.40
37456;DHT22;23316;50.718;7.328;2023-06-22T02:54:11;23.90;57.50
37456;DHT22;23316;50.718;7.328;2023-06-22T02:56:38;23.90;57.50
37456;DHT22;23316;50.718;7.328;2023-06-22T02:59:06;23.90;57.50
37456;DHT22;23316;50.718;7.328;2023-06-22T03:01:33;23.90;58.00
37456;DHT22;23316;50.718;7.328;2023-06-22T03:04:06;23.90;57.60
37456;DHT22;23316;50.718;7.328;2023-06-22T03:06:34;23.90;57.60
37456;DHT22;23316;50.718;7.328;2023-06-22T03:09:03;23.90;57.60
37456;DHT22;23316;50.718;7.328;2023-06-22T03:11:32;23.90;57.70
37456;DHT22;23316;50.718;7.328;2023-06-22T03:14:00;23.80;57.60
37456;DHT22;23316;50.718;7.328;2023-06-22T03:16:28;23.80;57.70
37456;DHT22;23316;50.718;7.328;2023-06-22T03:18:55;23.90;57.80
37456;DHT22;23316;50.718;7.328;2023-06-22T03:21:23;23.80;58.30
37456;DHT22;23316;50.718;7.328;2023-06-22T03:23:50;23.80;57.80
37456;DHT22;23316;50.718;7.328;2023-06-22T03:26:18;23.80;57.80
37456;DHT22;23316;50.718;7.328;2023-06-22T03:28:46;23.80;57.90
37456;DHT22;23316;50.718;7.328;2023-06-22T03:31:14;23.90;58.00
37456;DHT22;23316;50.718;7.328;2023-06-22T03:33:41;23.80;57.90
37456;DHT22;23316;50.718;7.328;2023-06-22T03:36:08;23.80;58.00
37456;DHT22;23316;50.718;7.328;2023-06-22T03:38:35;23.80;58.00
37456;DHT22;23316;50.718;7.328;2023-06-22T03:41:02;23.90;58.10
37456;DHT22;23316;50.718;7.328;2023-06-22T03:43:30;23.90;58.10
37456;DHT22;23316;50.718;7.328;2023-06-22T03:45:58;23.90;58.10
37456;DHT22;23316;50.718;7.328;2023-06-22T03:48:25;23.90;58.20
37456;DHT22;23316;50.718;7.328;2023-06-22T03:50:53;23.90;58.20
37456;DHT22;23316;50.718;7.328;2023-06-22T03:53:20;23.90;58.20
37456;DHT22;23316;50.718;7.328;2023-06-22T03:55:48;23.80;58.30
37456;DHT22;23316;50.718;7.328;2023-06-22T03:58:16;23.90;58.30
37456;DHT22;23316;50.718;7.328;2023-06-22T04:00:45;23.90;58.30
37456;DHT22;23316;50.718;7.328;2023-06-22T04:03:14;23.90;58.40
37456;DHT22;23316;50.718;7.328;2023-06-22T04:05:42;23.90;58.40
37456;DHT22;23316;50.718;7.328;2023-06-22T04:08:09;23.90;58.40
37456;DHT22;23316;50.718;7.328;2023-06-22T04:10:36;23.90;58.40
37456;DHT22;23316;50.718;7.328;2023-06-22T04:13:04;23.90;58.90
37456;DHT22;23316;50.718;7.328;2023-06-22T04:15:31;23.90;58.50
37456;DHT22;23316;50.718;7.328;2023-06-22T04:17:58;23.90;58.50
37456;DHT22;23316;50.718;7.328;2023-06-22T04:20:27;23.90;58.50
37456;DHT22;23316;50.718;7.328;2023-06-22T04:22:54;23.90;58.50
37456;DHT22;23316;50.718;7.328;2023-06-22T04:25:22;23.90;58.50
37456;DHT22;23316;50.718;7.328;2023-06-22T04:27:49;23.90;58.50
37456;DHT22;23316;50.718;7.328;2023-06-22T04:30:16;23.90;58.60
37456;DHT22;23316;50.718;7.328;2023-06-22T04:32:44;23.90;58.60
37456;DHT22;23316;50.718;7.328;2023-06-22T04:35:11;23.90;58.60
37456;DHT22;23316;50.718;7.328;2023-06-22T04:37:40;23.90;58.60
37456;DHT22;23316;50.718;7.328;2023-06-22T04:40:08;23.90;58.70
37456;DHT22;23316;50.718;7.328;2023-06-22T04:42:37;23.90;58.60
37456;DHT22;23316;50.718;7.328;2023-06-22T04:45:05;23.90;58.60
37456;DHT22;23316;50.718;7.328;2023-06-22T04:47:32;23.90;58.70
37456;DHT22;23316;50.718;7.328;2023-06-22T04:50:00;23.90;58.60
37456;DHT22;23316;50.718;7.328;2023-06-22T04:52:31;23.90;58.60
37456;DHT22;23316;50.718;7.328;2023-06-22T04:55:00;23.90;58.60
37456;DHT22;23316;50.718;7.328;2023-06-22T04:57:27;23.90;58.50
37456;DHT22;23316;50.718;7.328;2023-06-22T04:59:58;23.90;58.50
37456;DHT22;23316;50.718;7.328;2023-06-22T05:02:42;23.90;58.50
37456;DHT22;23316;50.718;7.328;2023-06-22T05:05:09;24.00;58.40
37456;DHT22;23316;50.718;7.328;2023-06-22T05:07:42;23.90;58.40
37456;DHT22;23316;50.718;7.328;2023-06-22T05:10:11;23.90;58.60
37456;DHT22;23316;50.718;7.328;2023-06-22T05:12:39;23.90;58.70
37456;DHT22;23316;50.718;7.328;2023-06-22T05:15:08;23.90;58.70
37456;DHT22;23316;50.718;7.328;2023-06-22T05:17:36;23.90;58.80
37456;DHT22;23316;50.718;7.328;2023-06-22T05:20:09;23.90;58.90
37456;DHT22;23316;50.718;7.328;2023-06-22T05:22:37;23.90;59.10
37456;DHT22;23316;50.718;7.328;2023-06-22T05:25:07;23.90;59.10
37456;DHT22;23316;50.718;7.328;2023-06-22T05:27:36;23.90;59.20
37456;DHT22;23316;50.718;7.328;2023-06-22T05:30:07;23.90;59.30
37456;DHT22;23316;50.718;7.328;2023-06-22T05:32:35;23.90;59.30
37456;DHT22;23316;50.718;7.328;2023-06-22T05:35:02;24.00;59.40
37456;DHT22;23316;50.718;7.328;2023-06-22T05:37:30;24.00;59.40
37456;DHT22;23316;50.718;7.328;2023-06-22T05:40:02;24.00;59.50
37456;DHT22;23316;50.718;7.328;2023-06-22T05:42:30;24.00;59.60
37456;DHT22;23316;50.718;7.328;2023-06-22T05:44:58;24.00;59.60
37456;DHT22;23316;50.718;7.328;2023-06-22T05:47:26;24.10;59.70
37456;DHT22;23316;50.718;7.328;2023-06-22T05:49:53;24.10;59.80
37456;DHT22;23316;50.718;7.328;2023-06-22T05:52:20;24.10;59.80
37456;DHT22;23316;50.718;7.328;2023-06-22T05:54:47;24.10;59.90
37456;DHT22;23316;50.718;7.328;2023-06-22T05:57:14;24.20;60.00
37456;DHT22;23316;50.718;7.328;2023-06-22T05:59:42;24.20;60.00
37456;DHT22;23316;50.718;7.328;2023-06-22T06:02:10;24.20;60.00
37456;DHT22;23316;50.718;7.328;2023-06-22T06:04:37;24.30;59.90
37456;DHT22;23316;50.718;7.328;2023-06-22T06:07:05;24.30;59.80
37456;DHT22;23316;50.718;7.328;2023-06-22T06:09:32;24.40;59.80
37456;DHT22;23316;50.718;7.328;2023-06-22T06:11:59;24.40;59.80
37456;DHT22;23316;50.718;7.328;2023-06-22T06:14:28;24.50;59.80
37456;DHT22;23316;50.718;7.328;2023-06-22T06:16:56;24.50;59.60
37456;DHT22;23316;50.718;7.328;2023-06-22T06:19:24;24.60;59.60
37456;DHT22;23316;50.718;7.328;2023-06-22T06:21:51;24.60;59.60
37456;DHT22;23316;50.718;7.328;2023-06-22T06:24:19;24.70;59.60
37456;DHT22;23316;50.718;7.328;2023-06-22T06:26:46;24.70;59.50
37456;DHT22;23316;50.718;7.328;2023-06-22T06:29:14;24.70;59.40
37456;DHT22;23316;50.718;7.328;2023-06-22T06:31:42;24.80;59.30
37456;DHT22;23316;50.718;7.328;2023-06-22T06:34:09;24.80;59.20
37456;DHT22;23316;50.718;7.328;2023-06-22T06:36:38;24.90;59.20
37456;DHT22;23316;50.718;7.328;2023-06-22T06:39:05;24.90;59.20
37456;DHT22;23316;50.718;7.328;2023-06-22T06:41:32;25.00;59.20
37456;DHT22;23316;50.718;7.328;2023-06-22T06:44:00;25.00;59.20
37456;DHT22;23316;50.718;7.328;2023-06-22T06:46:27;25.00;59.20
37456;DHT22;23316;50.718;7.328;2023-06-22T06:48:54;25.10;58.60
37456;DHT22;23316;50.718;7.328;2023-06-22T06:51:21;25.10;58.70
37456;DHT22;23316;50.718;7.328;2023-06-22T06:53:50;25.10;58.60
37456;DHT22;23316;50.718;7.328;2023-06-22T06:56:17;25.10;58.60
37456;DHT22;23316;50.718;7.328;2023-06-22T06:58:44;25.10;58.70
37456;DHT22;23316;50.718;7.328;2023-06-22T07:01:12;25.10;59.10
37456;DHT22;23316;50.718;7.328;2023-06-22T07:03:39;25.10;59.10
37456;DHT22;23316;50.718;7.328;2023-06-22T07:06:06;25.10;59.00
37456;DHT22;23316;50.718;7.328;2023-06-22T07:08:33;25.10;58.90
37456;DHT22;23316;50.718;7.328;2023-06-22T07:11:02;25.10;59.10
37456;DHT22;23316;50.718;7.328;2023-06-22T07:13:29;25.10;59.10
37456;DHT22;23316;50.718;7.328;2023-06-22T07:15:57;25.00;58.90
37456;DHT22;23316;50.718;7.328;2023-06-22T07:18:25;25.10;58.90
37456;DHT22;23316;50.718;7.328;2023-06-22T07:20:52;25.10;59.00
37456;DHT22;23316;50.718;7.328;2023-06-22T07:23:20;25.20;59.00
37456;DHT22;23316;50.718;7.328;2023-06-22T07:25:47;25.20;59.20
37456;DHT22;23316;50.718;7.328;2023-06-22T07:28:17;25.30;59.30
37456;DHT22;23316;50.718;7.328;2023-06-22T07:30:49;25.30;59.30
37456;DHT22;23316;50.718;7.328;2023-06-22T07:33:23;25.40;59.30
37456;DHT22;23316;50.718;7.328;2023-06-22T07:36:11;25.40;59.50
37456;DHT22;23316;50.718;7.328;2023-06-22T07:38:57;25.50;59.10
37456;DHT22;23316;50.718;7.328;2023-06-22T07:41:40;25.60;59.10
37456;DHT22;23316;50.718;7.328;2023-06-22T07:44:23;25.60;58.80
37456;DHT22;23316;50.718;7.328;2023-06-22T07:47:06;25.70;58.90
37456;DHT22;23316;50.718;7.328;2023-06-22T07:49:39;25.70;58.80
37456;DHT22;23316;50.718;7.328;2023-06-22T07:52:11;25.70;58.90
37456;DHT22;23316;50.718;7.328;2023-06-22T07:54:41;25.80;58.90
37456;DHT22;23316;50.718;7.328;2023-06-22T07:57:47;25.80;59.10
37456;DHT22;23316;50.718;7.328;2023-06-22T08:00:31;25.80;59.20
37456;DHT22;23316;50.718;7.328;2023-06-22T08:03:08;25.90;59.20
37456;DHT22;23316;50.718;7.328;2023-06-22T08:05:35;26.00;59.20
37456;DHT22;23316;50.718;7.328;2023-06-22T08:08:03;26.00;58.60
37456;DHT22;23316;50.718;7.328;2023-06-22T08:10:30;26.00;58.50
37456;DHT22;23316;50.718;7.328;2023-06-22T08:12:57;26.00;58.50
37456;DHT22;23316;50.718;7.328;2023-06-22T08:15:27;26.10;58.40
37456;DHT22;23316;50.718;7.328;2023-06-22T08:17:55;26.10;58.40
37456;DHT22;23316;50.718;7.328;2023-06-22T08:20:23;26.20;58.40
37456;DHT22;23316;50.718;7.328;2023-06-22T08:22:51;26.20;58.40
37456;DHT22;23316;50.718;7.328;2023-06-22T08:25:18;26.30;58.50
37456;DHT22;23316;50.718;7.328;2023-06-22T08:27:45;26.30;58.50
37456;DHT22;23316;50.718;7.328;2023-06-22T08:30:15;26.30;58.70
37456;DHT22;23316;50.718;7.328;2023-06-22T08:32:44;26.30;58.80
37456;DHT22;23316;50.718;7.328;2023-06-22T08:35:11;26.40;58.70
37456;DHT22;23316;50.718;7.328;2023-06-22T08:37:38;26.50;58.70
37456;DHT22;23316;50.718;7.328;2023-06-22T08:40:07;26.50;58.80
37456;DHT22;23316;50.718;7.328;2023-06-22T08:42:35;26.60;58.90
37456;DHT22;23316;50.718;7.328;2023-06-22T08:45:04;26.70;58.50
37456;DHT22;23316;50.718;7.328;2023-06-22T08:47:31;26.70;58.50
37456;DHT22;23316;50.718;7.328;2023-06-22T08:50:00;26.70;58.30
37456;DHT22;23316;50.718;7.328;2023-06-22T08:52:28;26.80;58.30
37456;DHT22;23316;50.718;7.328;2023-06-22T08:54:56;26.80;58.40
37456;DHT22;23316;50.718;7.328;2023-06-22T08:57:24;26.90;58.40
37456;DHT22;23316;50.718;7.328;2023-06-22T08:59:51;27.00;58.20
37456;DHT22;23316;50.718;7.328;2023-06-22T09:02:19;27.00;58.00
37456;DHT22;23316;50.718;7.328;2023-06-22T09:04:46;27.10;57.80
37456;DHT22;23316;50.718;7.328;2023-06-22T09:07:16;27.20;57.60
37456;DHT22;23316;50.718;7.328;2023-06-22T09:09:48;27.20;57.10
37456;DHT22;23316;50.718;7.328;2023-06-22T09:12:15;27.30;57.10
37456;DHT22;23316;50.718;7.328;2023-06-22T09:14:42;27.30;56.80
37456;DHT22;23316;50.718;7.328;2023-06-22T09:17:10;27.40;56.60
37456;DHT22;23316;50.718;7.328;2023-06-22T09:19:37;27.50;56.50
37456;DHT22;23316;50.718;7.328;2023-06-22T09:22:05;27.50;56.40
37456;DHT22;23316;50.718;7.328;2023-06-22T09:24:34;27.60;56.00
37456;DHT22;23316;50.718;7.328;2023-06-22T09:27:01;27.60;55.70
37456;DHT22;23316;50.718;7.328;2023-06-22T09:29:28;27.70;55.60
37456;DHT22;23316;50.718;7.328;2023-06-22T09:31:59;27.70;55.60
37456;DHT22;23316;50.718;7.328;2023-06-22T09:34:26;27.70;55.20
37456;DHT22;23316;50.718;7.328;2023-06-22T09:36:54;27.80;55.10
37456;DHT22;23316;50.718;7.328;2023-06-22T09:39:23;27.80;55.10
37456;DHT22;23316;50.718;7.328;2023-06-22T09:41:51;27.90;55.10
37456;DHT22;23316;50.718;7.328;2023-06-22T09:44:19;27.90;55.00
37456;DHT22;23316;50.718;7.328;2023-06-22T09:46:46;28.00;55.10
37456;DHT22;23316;50.718;7.328;2023-06-22T09:49:13;28.00;54.70
37456;DHT22;23316;50.718;7.328;2023-06-22T09:51:40;28.00;54.80
37456;DHT22;23316;50.718;7.328;2023-06-22T09:54:07;28.00;55.00
37456;DHT22;23316;50.718;7.328;2023-06-22T09:56:35;28.10;55.20
37456;DHT22;23316;50.718;7.328;2023-06-22T09:59:04;28.10;55.20
37456;DHT22;23316;50.718;7.328;2023-06-22T10:01:32;28.20;55.10
37456;DHT22;23316;50.718;7.328;2023-06-22T10:03:59;28.20;54.70
37456;DHT22;23316;50.718;7.328;2023-06-22T10:06:26;28.20;54.40
37456;DHT22;23316;50.718;7.328;2023-06-22T10:08:54;28.20;54.10
37456;DHT22;23316;50.718;7.328;2023-06-22T10:11:21;28.20;54.10
37456;DHT22;23316;50.718;7.328;2023-06-22T10:13:53;28.20;54.10
37456;DHT22;23316;50.718;7.328;2023-06-22T10:16:21;28.20;54.20
37456;DHT22;23316;50.718;7.328;2023-06-22T10:18:48;28.20;54.10
37456;DHT22;23316;50.718;7.328;2023-06-22T10:21:15;28.20;54.10
37456;DHT22;23316;50.718;7.328;2023-06-22T10:23:43;28.20;54.20
37456;DHT22;23316;50.718;7.328;2023-06-22T10:26:10;28.20;54.40
37456;DHT22;23316;50.718;7.328;2023-06-22T10:28:37;28.20;54.50
37456;DHT22;23316;50.718;7.328;2023-06-22T10:31:04;28.20;54.60
37456;DHT22;23316;50.718;7.328;2023-06-22T10:33:33;28.20;54.80
37456;DHT22;23316;50.718;7.328;2023-06-22T10:36:00;28.10;54.90
37456;DHT22;23316;50.718;7.328;2023-06-22T10:38:27;28.10;55.20
37456;DHT22;23316;50.718;7.328;2023-06-22T10:40:55;28.10;55.30
37456;DHT22;23316;50.718;7.328;2023-06-22T10:43:22;28.00;55.30
37456;DHT22;23316;50.718;7.328;2023-06-22T10:45:49;28.00;55.50
37456;DHT22;23316;50.718;7.328;2023-06-22T10:48:16;28.00;55.80
37456;DHT22;23316;50.718;7.328;2023-06-22T10:50:46;28.00;55.90
37456;DHT22;23316;50.718;7.328;2023-06-22T10:53:13;27.90;56.10
37456;DHT22;23316;50.718;7.328;2023-06-22T10:55:40;27.90;56.20
37456;DHT22;23316;50.718;7.328;2023-06-22T10:58:08;27.90;56.20
37456;DHT22;23316;50.718;7.328;2023-06-22T11:00:35;27.90;56.30
37456;DHT22;23316;50.718;7.328;2023-06-22T11:03:02;27.80;56.20
37456;DHT22;23316;50.718;7.328;2023-06-22T11:05:29;27.80;56.40
37456;DHT22;23316;50.718;7.328;2023-06-22T11:07:58;27.70;56.60
37456;DHT22;23316;50.718;7.328;2023-06-22T11:10:25;27.70;57.00
37456;DHT22;23316;50.718;7.328;2023-06-22T11:12:52;27.70;57.10
37456;DHT22;23316;50.718;7.328;2023-06-22T11:15:21;27.60;57.20
37456;DHT22;23316;50.718;7.328;2023-06-22T11:17:48;27.50;57.20
37456;DHT22;23316;50.718;7.328;2023-06-22T11:20:15;27.50;57.20
37456;DHT22;23316;50.718;7.328;2023-06-22T11:22:43;27.40;57.20
37456;DHT22;23316;50.718;7.328;2023-06-22T11:25:11;27.30;57.30
37456;DHT22;23316;50.718;7.328;2023-06-22T11:27:38;27.30;58.00
37456;DHT22;23316;50.718;7.328;2023-06-22T11:30:07;27.20;57.50
37456;DHT22;23316;50.718;7.328;2023-06-22T11:32:34;27.20;57.60
37456;DHT22;23316;50.718;7.328;2023-06-22T11:35:02;27.20;57.70
37456;DHT22;23316;50.718;7.328;2023-06-22T11:37:29;27.10;57.90
37456;DHT22;23316;50.718;7.328;2023-06-22T11:39:56;27.10;58.60
37456;DHT22;23316;50.718;7.328;2023-06-22T11:42:25;27.00;59.30
37456;DHT22;23316;50.718;7.328;2023-06-22T11:44:54;27.00;59.90
37456;DHT22;23316;50.718;7.328;2023-06-22T11:47:21;26.90;60.50
37456;DHT22;23316;50.718;7.328;2023-06-22T11:49:48;26.70;60.60
37456;DHT22;23316;50.718;7.328;2023-06-22T11:52:15;26.70;61.40
37456;DHT22;23316;50.718;7.328;2023-06-22T11:54:43;26.60;61.80
37456;DHT22;23316;50.718;7.328;2023-06-22T11:57:11;26.50;62.10
37456;DHT22;23316;50.718;7.328;2023-06-22T11:59:40;26.40;62.60
37456;DHT22;23316;50.718;7.328;2023-06-22T12:02:07;26.40;62.80
37456;DHT22;23316;50.718;7.328;2023-06-22T12:04:35;26.30;63.30
37456;DHT22;23316;50.718;7.328;2023-06-22T12:07:03;26.20;63.60
37456;DHT22;23316;50.718;7.328;2023-06-22T12:09:30;26.20;63.70
37456;DHT22;23316;50.718;7.328;2023-06-22T12:11:57;26.20;64.40
37456;DHT22;23316;50.718;7.328;2023-06-22T12:14:24;26.20;64.60
37456;DHT22;23316;50.718;7.328;2023-06-22T12:16:53;26.30;64.40
37456;DHT22;23316;50.718;7.328;2023-06-22T12:19:20;26.30;64.00
37456;DHT22;23316;50.718;7.328;2023-06-22T12:21:47;26.40;63.60
37456;DHT22;23316;50.718;7.328;2023-06-22T12:24:14;26.40;63.40
37456;DHT22;23316;50.718;7.328;2023-06-22T12:26:41;26.50;63.20
37456;DHT22;23316;50.718;7.328;2023-06-22T12:29:10;26.50;62.80
37456;DHT22;23316;50.718;7.328;2023-06-22T12:31:37;26.50;62.60
37456;DHT22;23316;50.718;7.328;2023-06-22T12:34:06;26.60;62.50
37456;DHT22;23316;50.718;7.328;2023-06-22T12:36:34;26.60;62.50
37456;DHT22;23316;50.718;7.328;2023-06-22T12:39:01;26.70;62.60
37456;DHT22;23316;50.718;7.328;2023-06-22T12:41:28;26.70;62.80
37456;DHT22;23316;50.718;7.328;2023-06-22T12:43:55;26.80;62.40
37456;DHT22;23316;50.718;7.328;2023-06-22T12:46:23;26.90;62.10
37456;DHT22;23316;50.718;7.328;2023-06-22T12:48:50;26.90;61.80
37456;DHT22;23316;50.718;7.328;2023-06-22T12:51:22;26.90;61.50
37456;DHT22;23316;50.718;7.328;2023-06-22T12:53:49;27.00;61.40
37456;DHT22;23316;50.718;7.328;2023-06-22T12:56:16;27.10;61.30
37456;DHT22;23316;50.718;7.328;2023-06-22T12:58:44;27.10;61.20
37456;DHT22;23316;50.718;7.328;2023-06-22T13:01:11;27.10;61.30
37456;DHT22;23316;50.718;7.328;2023-06-22T13:03:38;27.20;61.30
37456;DHT22;23316;50.718;7.328;2023-06-22T13:06:05;27.20;61.10
37456;DHT22;23316;50.718;7.328;2023-06-22T13:08:34;27.20;60.90
37456;DHT22;23316;50.718;7.328;2023-06-22T13:11:01;27.20;60.30
37456;DHT22;23316;50.718;7.328;2023-06-22T13:13:29;27.20;59.90
37456;DHT22;23316;50.718;7.328;2023-06-22T13:15:56;27.30;59.20
37456;DHT22;23316;50.718;7.328;2023-06-22T13:18:23;27.30;58.70
37456;DHT22;23316;50.718;7.328;2023-06-22T13:20:50;27.30;58.60
37456;DHT22;23316;50.718;7.328;2023-06-22T13:23:20;27.30;58.60
37456;DHT22;23316;50.718;7.328;2023-06-22T13:25:49;27.30;58.70
37456;DHT22;23316;50.718;7.328;2023-06-22T13:28:16;27.30;58.60
37456;DHT22;23316;50.718;7.328;2023-06-22T13:30:44;27.30;58.40
37456;DHT22;23316;50.718;7.328;2023-06-22T13:33:13;27.30;58.40
37456;DHT22;23316;50.718;7.328;2023-06-22T13:35:41;27.30;58.50
37456;DHT22;23316;50.718;7.328;2023-06-22T13:38:08;27.30;58.50
37456;DHT22;23316;50.718;7.328;2023-06-22T13:40:36;27.30;58.80
37456;DHT22;23316;50.718;7.328;2023-06-22T13:43:06;27.30;58.90
37456;DHT22;23316;50.718;7.328;2023-06-22T13:45:34;27.30;59.40
37456;DHT22;23316;50.718;7.328;2023-06-22T13:48:01;27.30;59.40
37456;DHT22;23316;50.718;7.328;2023-06-22T13:50:29;27.30;59.50
37456;DHT22;23316;50.718;7.328;2023-06-22T13:52:56;27.30;59.60
37456;DHT22;23316;50.718;7.328;2023-06-22T13:55:24;27.30;59.40
37456;DHT22;23316;50.718;7.328;2023-06-22T13:57:52;27.30;59.30
37456;DHT22;23316;50.718;7.328;2023-06-22T14:00:21;27.30;59.00
37456;DHT22;23316;50.718;7.328;2023-06-22T14:02:49;27.40;59.00
37456;DHT22;23316;50.718;7.328;2023-06-22T14:05:16;27.40;58.90
37456;DHT22;23316;50.718;7.328;2023-06-22T14:07:44;27.40;58.90
37456;DHT22;23316;50.718;7.328;2023-06-22T14:10:11;27.50;59.20
37456;DHT22;23316;50.718;7.328;2023-06-22T14:12:38;27.50;58.80
37456;DHT22;23316;50.718;7.328;2023-06-22T14:15:06;27.40;58.60
37456;DHT22;23316;50.718;7.328;2023-06-22T14:17:35;27.40;58.60
37456;DHT22;23316;50.718;7.328;2023-06-22T14:20:03;27.40;58.50
37456;DHT22;23316;50.718;7.328;2023-06-22T14:22:31;27.40;58.50
37456;DHT22;23316;50.718;7.328;2023-06-22T14:24:58;27.40;58.30
37456;DHT22;23316;50.718;7.328;2023-06-22T14:27:26;27.40;58.60
37456;DHT22;23316;50.718;7.328;2023-06-22T14:29:53;27.40;58.20
37456;DHT22;23316;50.718;7.328;2023-06-22T14:32:20;27.40;58.40
37456;DHT22;23316;50.718;7.328;2023-06-22T14:34:49;27.40;58.60
37456;DHT22;23316;50.718;7.328;2023-06-22T14:37:16;27.40;58.70
37456;DHT22;23316;50.718;7.328;2023-06-22T14:39:43;27.40;58.60
37456;DHT22;23316;50.718;7.328;2023-06-22T14:42:11;27.40;58.50
37456;DHT22;23316;50.718;7.328;2023-06-22T14:44:38;27.30;58.30
37456;DHT22;23316;50.718;7.328;2023-06-22T14:47:06;27.20;58.40
37456;DHT22;23316;50.718;7.328;2023-06-22T14:49:33;27.20;58.60
37456;DHT22;23316;50.718;7.328;2023-06-22T14:52:03;27.10;58.80
37456;DHT22;23316;50.718;7.328;2023-06-22T14:54:32;27.10;59.10
37456;DHT22;23316;50.718;7.328;2023-06-22T14:56:59;27.00;59.30
37456;DHT22;23316;50.718;7.328;2023-06-22T14:59:26;27.00;59.60
37456;DHT22;23316;50.718;7.328;2023-06-22T15:01:53;27.00;59.80
37456;DHT22;23316;50.718;7.328;2023-06-22T15:04:20;27.00;59.90
37456;DHT22;23316;50.718;7.328;2023-06-22T15:06:48;26.90;59.80
37456;DHT22;23316;50.718;7.328;2023-06-22T15:09:16;26.90;59.80
37456;DHT22;23316;50.718;7.328;2023-06-22T15:11:44;26.90;59.80
37456;DHT22;23316;50.718;7.328;2023-06-22T15:14:13;26.90;59.30
37456;DHT22;23316;50.718;7.328;2023-06-22T15:16:40;26.80;58.80
37456;DHT22;23316;50.718;7.328;2023-06-22T15:19:07;26.80;58.70
37456;DHT22;23316;50.718;7.328;2023-06-22T15:21:35;26.80;58.70
37456;DHT22;23316;50.718;7.328;2023-06-22T15:24:03;26.80;58.70
37456;DHT22;23316;50.718;7.328;2023-06-22T15:26:31;26.70;58.60
37456;DHT22;23316;50.718;7.328;2023-06-22T15:28:58;26.70;58.70
37456;DHT22;23316;50.718;7.328;2023-06-22T15:31:26;26.70;58.70
37456;DHT22;23316;50.718;7.328;2023-06-22T15:33:53;26.70;58.80
37456;DHT22;23316;50.718;7.328;2023-06-22T15:36:21;26.60;58.70
37456;DHT22;23316;50.718;7.328;2023-06-22T15:38:48;26.60;58.80